Terminal Aerodrome Forecast
Issued by NWS Green Bay, WI

Home | Current Version | Previous Version | Graphics & Text | Print | Product List | Glossary On
Versions: 1 2 3 4 5 6 7 8 9 10 11 12 13 14 15
000
FTUS43 KGRB 210520
TAFGRB
TAF
KGRB 210520Z 2106/2206 19006KT P6SM SCT250 WS007/23030KT
     FM210800 19004KT 4SM BR BKN250 WS007/23030KT
     FM211300 20009KT P6SM SCT045 BKN100
      TEMPO 2114/2117 2SM TSRA BR BKN025CB
     FM211900 22011G20KT P6SM SCT035 BKN250 PROB30 2122/2202 4SM
      -TSRA BKN025CB
     FM220200 22006KT 3SM BR SCT250=

USA.gov is the U.S. government's official web portal to all federal, state and local government web resources and services.